createdAt,value
2022-12-07T06:58:25.210Z,100427.72
2022-12-07T07:00:52.801Z,100427.72
2022-12-07T07:07:24.535Z,100433.66
2022-12-07T07:09:51.919Z,100433.66
2022-12-07T07:12:18.997Z,100431.94
2022-12-07T07:14:46.087Z,100434.66
2022-12-07T07:17:13.519Z,100432.41
2022-12-07T07:19:40.590Z,100435.56
2022-12-07T07:22:07.678Z,100435.62
2022-12-07T07:24:35.076Z,100436.66
2022-12-07T07:27:02.307Z,100439.63
2022-12-07T07:29:29.383Z,100444.66
2022-12-07T07:32:00.672Z,100434.31
2022-12-07T07:34:32.110Z,100436.13
2022-12-07T07:36:59.508Z,100438.00
2022-12-07T07:39:26.766Z,100441.53
2022-12-07T07:41:53.833Z,100436.97
2022-12-07T07:44:26.212Z,100434.78
2022-12-07T07:46:56.045Z,100427.13
2022-12-07T07:49:23.098Z,100443.44
2022-12-07T07:51:50.444Z,100444.56
2022-12-07T07:54:18.775Z,100439.41
2022-12-07T07:56:45.849Z,100446.31
2022-12-07T07:59:13.236Z,100439.41
2022-12-07T08:01:40.351Z,100440.09
2022-12-07T08:04:08.161Z,100445.62
2022-12-07T08:06:35.336Z,100449.91
2022-12-07T08:09:03.149Z,100442.97
2022-12-07T08:11:30.505Z,100452.31
2022-12-07T08:14:01.204Z,100444.25
2022-12-07T08:16:28.328Z,100444.25
2022-12-07T08:18:55.801Z,100454.13
2022-12-07T08:21:22.968Z,100444.66
2022-12-07T08:23:50.087Z,100450.25
2022-12-07T08:26:17.758Z,100453.87
2022-12-07T08:28:46.096Z,100456.34
2022-12-07T08:31:19.193Z,100457.16
2022-12-07T08:33:48.160Z,100458.44
2022-12-07T08:36:15.416Z,100453.94
2022-12-07T08:39:01.530Z,100453.09
2022-12-07T08:41:30.592Z,100450.28
2022-12-07T08:43:57.707Z,100454.47
2022-12-07T08:46:39.072Z,100455.72
2022-12-07T08:49:13.234Z,100455.88
2022-12-07T08:51:41.103Z,100453.50
2022-12-07T08:54:11.803Z,100454.16
2022-12-07T08:56:39.745Z,100448.84
2022-12-07T08:59:07.211Z,100453.44
2022-12-07T09:01:34.769Z,100456.16
2022-12-07T09:04:01.917Z,100450.53
2022-12-07T09:06:29.180Z,100449.53
2022-12-07T09:08:58.912Z,100459.19
2022-12-07T09:11:28.764Z,100459.03
2022-12-07T09:13:57.076Z,100454.59
2022-12-07T09:16:24.327Z,100455.50
2022-12-07T09:18:51.574Z,100450.09
2022-12-07T09:21:18.961Z,100440.13
2022-12-07T09:23:46.050Z,100449.12
2022-12-07T09:26:13.185Z,100448.50
2022-12-07T09:28:40.631Z,100447.94
2022-12-07T09:31:24.909Z,100442.22
2022-12-07T09:34:01.096Z,100441.44
2022-12-07T09:36:29.035Z,100447.84
2022-12-07T09:38:56.801Z,100440.81
2022-12-07T09:41:25.188Z,100440.41
2022-12-07T09:43:53.709Z,100434.91
2022-12-07T09:46:21.999Z,100426.81
2022-12-07T09:48:50.968Z,100433.25
2022-12-07T09:51:25.022Z,100429.84
2022-12-07T09:53:54.929Z,100430.37
2022-12-07T09:56:23.111Z,100428.72
2022-12-07T09:58:50.841Z,100427.44
2022-12-07T10:01:20.852Z,100427.34
2022-12-07T10:03:53.726Z,100431.31
2022-12-07T10:06:21.481Z,100439.53
2022-12-07T10:08:48.943Z,100438.31
2022-12-07T10:11:17.450Z,100432.44
2022-12-07T10:13:49.676Z,100431.25
2022-12-07T10:16:26.105Z,100424.00
2022-12-07T10:18:53.678Z,100416.03
2022-12-07T10:21:22.109Z,100411.88
2022-12-07T10:24:04.441Z,100414.72
2022-12-07T10:26:33.358Z,100415.69
2022-12-07T10:29:17.031Z,100416.69
2022-12-07T10:31:46.495Z,100408.12
2022-12-07T10:34:23.206Z,100408.03
2022-12-07T10:36:50.629Z,100406.66
2022-12-07T10:39:24.805Z,100408.62
2022-12-07T10:41:59.846Z,100414.81
2022-12-07T10:44:29.276Z,100417.88
2022-12-07T10:47:18.348Z,100407.31
2022-12-07T10:50:22.183Z,100405.38
2022-12-07T10:53:05.108Z,100398.62
2022-12-07T10:56:06.308Z,100397.31
2022-12-07T10:58:50.436Z,100391.88
2022-12-07T11:01:25.945Z,100399.41
2022-12-07T11:04:02.017Z,100394.69
2022-12-07T11:06:54.095Z,100390.66
2022-12-07T11:09:51.887Z,100390.25
2022-12-07T11:12:32.943Z,100389.87
2022-12-07T11:15:45.755Z,100385.56
2022-12-07T11:18:16.091Z,100385.75
2022-12-07T11:20:43.895Z,100393.13
2022-12-07T11:23:35.313Z,100377.66
2022-12-07T11:26:44.251Z,100383.50
2022-12-07T11:29:23.512Z,100380.66
2022-12-07T11:32:07.667Z,100379.06
2022-12-07T11:34:43.954Z,100379.13
2022-12-07T11:40:25.616Z,100372.81
2022-12-07T11:43:19.043Z,100370.31
2022-12-07T11:45:50.227Z,100371.50
2022-12-07T11:48:30.661Z,100372.50
2022-12-07T11:51:02.607Z,100369.53
2022-12-07T11:53:29.963Z,100382.56
2022-12-07T11:56:03.155Z,100380.34
2022-12-07T11:58:49.105Z,100375.13
2022-12-07T12:01:37.204Z,100373.88
2022-12-07T12:04:10.530Z,100381.62
2022-12-07T12:06:37.573Z,100377.44
2022-12-07T12:15:40.859Z,100360.06
2022-12-07T12:18:30.960Z,100360.25
2022-12-07T12:21:13.288Z,100356.06
2022-12-07T12:23:49.714Z,100345.22
2022-12-07T12:26:22.333Z,100343.41
2022-12-07T12:28:50.540Z,100340.75
2022-12-07T12:31:33.687Z,100340.69
2022-12-07T12:34:03.484Z,100330.19
2022-12-07T12:36:43.852Z,100325.13
2022-12-07T12:39:17.164Z,100325.34
2022-12-07T12:41:44.454Z,100328.94
2022-12-07T12:44:20.297Z,100316.62
2022-12-07T12:47:00.094Z,100316.47
2022-12-07T12:49:27.244Z,100321.84
2022-12-07T12:51:59.414Z,100316.13
2022-12-07T12:54:32.238Z,100312.47
2022-12-07T12:57:18.309Z,100316.56
2022-12-07T12:59:48.166Z,100318.09
2022-12-07T13:02:31.265Z,100318.66
2022-12-07T13:05:02.169Z,100320.69
2022-12-07T13:07:48.603Z,100326.69
2022-12-07T13:10:24.816Z,100322.19
2022-12-07T13:13:23.440Z,100328.94
2022-12-07T13:16:09.182Z,100325.50
2022-12-07T13:18:37.893Z,100324.94
2022-12-07T13:21:08.070Z,100334.31
2022-12-07T13:23:44.551Z,100332.50
2022-12-07T13:26:24.025Z,100327.56
2022-12-07T13:29:10.495Z,100327.56
2022-12-07T13:31:41.923Z,100327.09
2022-12-07T13:34:28.956Z,100326.88
2022-12-07T13:36:56.853Z,100337.06
2022-12-07T13:39:26.586Z,100337.62
2022-12-07T13:41:58.876Z,100337.38
2022-12-07T13:44:28.128Z,100330.25
2022-12-07T13:47:13.351Z,100338.81
2022-12-07T13:49:53.763Z,100328.09
2022-12-07T13:52:24.180Z,100340.19
2022-12-07T13:55:03.165Z,100339.91
2022-12-07T13:57:31.713Z,100342.50
2022-12-07T13:59:59.426Z,100340.31
2022-12-07T14:02:34.847Z,100338.22
2022-12-07T14:05:26.973Z,100337.91
2022-12-07T14:07:53.938Z,100347.69
2022-12-07T14:10:34.586Z,100354.88
2022-12-07T14:13:03.741Z,100345.41
2022-12-07T14:15:33.935Z,100357.56
2022-12-07T14:18:04.580Z,100354.31
2022-12-07T14:20:41.039Z,100355.34
2022-12-07T14:23:24.613Z,100361.66
2022-12-07T14:25:53.582Z,100352.37
2022-12-07T14:28:31.824Z,100346.91
2022-12-07T14:31:00.148Z,100344.94
2022-12-07T14:33:27.885Z,100355.78
2022-12-07T14:35:59.312Z,100351.72
2022-12-07T14:38:27.261Z,100349.53
2022-12-07T14:40:55.005Z,100356.88
2022-12-07T14:43:22.088Z,100353.47
2022-12-07T14:45:49.504Z,100364.78
2022-12-07T14:53:56.873Z,100368.53
2022-12-07T14:56:28.780Z,100373.16
2022-12-07T14:58:55.866Z,100377.56
2022-12-07T15:01:23.043Z,100368.16
2022-12-07T15:03:50.585Z,100364.34
2022-12-07T15:06:18.897Z,100371.97
2022-12-07T15:08:46.292Z,100382.00
2022-12-07T15:11:18.458Z,100378.12
2022-12-07T15:14:03.980Z,100382.06
2022-12-07T15:16:52.523Z,100377.75
2022-12-07T15:19:28.927Z,100391.69
2022-12-07T15:21:57.863Z,100393.63
2022-12-07T15:24:25.311Z,100386.47
2022-12-07T15:26:53.217Z,100394.41
2022-12-07T15:29:23.146Z,100400.72
2022-12-07T15:31:57.304Z,100391.69
2022-12-07T15:34:26.561Z,100402.78
2022-12-07T15:36:53.646Z,100400.84
2022-12-07T15:39:20.715Z,100397.75
2022-12-07T15:41:48.108Z,100407.34
2022-12-07T15:44:34.370Z,100404.09
2022-12-07T15:47:01.733Z,100408.12
2022-12-07T15:49:28.871Z,100415.66
2022-12-07T15:51:56.053Z,100411.75
2022-12-07T15:54:24.696Z,100406.16
2022-12-07T15:56:52.249Z,100408.00
2022-12-07T15:59:19.307Z,100405.00
2022-12-07T16:01:46.758Z,100408.09
2022-12-07T16:04:14.580Z,100406.87
2022-12-07T16:06:42.423Z,100400.72
2022-12-07T16:09:09.842Z,100415.41
2022-12-07T16:11:37.227Z,100412.69
2022-12-07T16:14:04.425Z,100412.63
2022-12-07T16:16:31.866Z,100412.78
2022-12-07T16:18:59.757Z,100410.44
2022-12-07T16:21:26.913Z,100401.56
2022-12-07T16:23:54.038Z,100409.50
2022-12-07T16:26:22.517Z,100407.38
2022-12-07T16:28:53.826Z,100402.69
2022-12-07T16:31:23.295Z,100411.84
2022-12-07T16:33:50.793Z,100413.13
2022-12-07T16:36:39.845Z,100404.62
2022-12-07T16:39:06.306Z,100406.06
2022-12-07T16:41:33.656Z,100404.53
2022-12-07T16:44:05.879Z,100415.69
2022-12-07T16:46:37.008Z,100412.25
2022-12-07T16:49:04.900Z,100415.78
2022-12-07T16:51:32.944Z,100412.69
2022-12-07T16:54:00.072Z,100412.50
2022-12-07T16:56:27.919Z,100413.03
2022-12-07T16:58:55.724Z,100427.28
2022-12-07T17:01:29.209Z,100421.06
2022-12-07T17:03:57.477Z,100418.12
2022-12-07T17:06:26.552Z,100425.44
2022-12-07T17:08:53.783Z,100425.56
2022-12-07T17:11:23.910Z,100422.47
2022-12-07T17:14:09.935Z,100432.03
2022-12-07T17:16:37.451Z,100433.75
2022-12-07T17:19:09.275Z,100430.31
2022-12-07T17:21:36.880Z,100434.19
2022-12-07T17:24:06.257Z,100429.53
2022-12-07T17:26:35.925Z,100429.78
2022-12-07T17:29:08.054Z,100433.28
2022-12-07T17:31:36.086Z,100436.25
2022-12-07T17:34:03.606Z,100445.69
2022-12-07T17:36:32.277Z,100449.25
2022-12-07T17:38:59.363Z,100442.66
2022-12-07T17:41:47.218Z,100451.41
2022-12-07T17:44:17.319Z,100454.31
2022-12-07T17:46:45.767Z,100457.22
2022-12-07T17:49:13.144Z,100458.88
2022-12-07T17:51:58.814Z,100465.28
2022-12-07T17:54:26.428Z,100470.97
2022-12-07T17:56:53.522Z,100472.69
2022-12-07T17:59:20.615Z,100468.69
2022-12-07T18:01:48.044Z,100470.94
2022-12-07T18:04:15.593Z,100466.06
2022-12-07T18:06:46.228Z,100460.37
2022-12-07T18:09:16.309Z,100459.62
2022-12-07T18:11:43.383Z,100463.16
2022-12-07T18:14:10.450Z,100468.84
2022-12-07T18:16:37.917Z,100470.69
2022-12-07T18:19:06.529Z,100465.84
2022-12-07T18:21:33.905Z,100468.63
2022-12-07T18:24:03.334Z,100469.81
2022-12-07T18:26:33.091Z,100470.81
2022-12-07T18:29:00.900Z,100473.44
2022-12-07T18:31:29.300Z,100468.69
2022-12-07T18:33:58.333Z,100474.66
2022-12-07T18:36:25.466Z,100473.88
2022-12-07T18:38:52.881Z,100468.06
2022-12-07T18:41:20.502Z,100469.25
2022-12-07T18:43:47.851Z,100475.34
2022-12-07T18:46:18.017Z,100473.63
2022-12-07T18:48:45.555Z,100461.03
2022-12-07T18:51:14.553Z,100467.84
2022-12-07T18:53:42.026Z,100468.75
2022-12-07T18:56:13.749Z,100465.19
2022-12-07T18:59:00.124Z,100475.03
2022-12-07T19:01:27.702Z,100469.81
2022-12-07T19:03:54.876Z,100470.47
2022-12-07T19:06:21.960Z,100475.78
2022-12-07T19:08:49.295Z,100479.28
2022-12-07T19:11:41.870Z,100486.03
2022-12-07T19:14:09.576Z,100482.78
2022-12-07T19:16:37.288Z,100478.44
2022-12-07T19:19:04.467Z,100485.81
2022-12-07T19:21:31.971Z,100480.44
2022-12-07T19:23:59.119Z,100482.06
2022-12-07T19:26:27.239Z,100483.66
2022-12-07T19:28:54.573Z,100472.09
2022-12-07T19:31:21.675Z,100470.44
2022-12-07T19:33:48.784Z,100471.16
2022-12-07T19:36:16.173Z,100470.97
2022-12-07T19:38:46.171Z,100469.28
2022-12-07T19:41:33.028Z,100464.97
2022-12-07T19:44:16.283Z,100466.84
2022-12-07T19:46:46.534Z,100462.47
2022-12-07T19:49:16.369Z,100455.91
2022-12-07T19:51:45.642Z,100466.84
2022-12-07T19:54:14.963Z,100466.06
2022-12-07T19:56:43.427Z,100461.34
2022-12-07T19:59:11.795Z,100464.50
2022-12-07T20:01:40.791Z,100468.88
2022-12-07T20:04:11.617Z,100474.81
2022-12-07T20:06:39.203Z,100484.69
2022-12-07T20:09:06.270Z,100479.25
2022-12-07T20:11:52.417Z,100480.44
2022-12-07T20:14:19.481Z,100480.34
2022-12-07T20:16:47.095Z,100473.78
2022-12-07T20:19:15.294Z,100474.34
2022-12-07T20:21:43.623Z,100476.28
2022-12-07T20:24:19.441Z,100482.53
2022-12-07T20:26:50.985Z,100483.25
2022-12-07T20:29:21.066Z,100482.38
2022-12-07T20:31:49.131Z,100493.75
2022-12-07T20:34:16.687Z,100495.69
2022-12-07T20:36:44.247Z,100497.97
2022-12-07T20:39:11.658Z,100493.03
2022-12-07T20:41:57.638Z,100487.09
2022-12-07T20:44:25.260Z,100495.59
2022-12-07T20:46:52.315Z,100491.06
2022-12-07T20:49:19.436Z,100490.06
2022-12-07T20:51:47.028Z,100498.47
2022-12-07T20:54:14.592Z,100497.53
2022-12-07T20:56:42.341Z,100497.53
2022-12-07T20:59:13.948Z,100509.78
2022-12-07T21:01:41.477Z,100510.94
2022-12-07T21:04:08.632Z,100506.84
2022-12-07T21:06:36.064Z,100508.56
2022-12-07T21:09:03.303Z,100494.87
2022-12-07T21:11:32.378Z,100500.91
2022-12-07T21:13:59.716Z,100503.66
2022-12-07T21:16:30.177Z,100495.81
2022-12-07T21:19:02.288Z,100504.97
2022-12-07T21:21:31.119Z,100503.84
2022-12-07T21:24:02.396Z,100494.37
2022-12-07T21:26:33.693Z,100499.59
2022-12-07T21:29:01.681Z,100499.53
2022-12-07T21:31:29.183Z,100510.12
2022-12-07T21:33:56.616Z,100506.69
2022-12-07T21:36:26.193Z,100510.12
2022-12-07T21:38:53.560Z,100512.81
2022-12-07T21:41:22.526Z,100509.16
2022-12-07T21:43:50.057Z,100501.28
2022-12-07T21:46:18.180Z,100505.72
2022-12-07T21:48:53.826Z,100508.28
2022-12-07T21:51:23.547Z,100508.94
2022-12-07T21:53:52.268Z,100509.34
2022-12-07T21:56:24.951Z,100506.75
2022-12-07T21:58:53.721Z,100501.63
2022-12-07T22:01:26.236Z,100506.88
2022-12-07T22:03:54.177Z,100505.91
2022-12-07T22:06:23.784Z,100498.22
2022-12-07T22:08:51.827Z,100499.97
2022-12-07T22:11:19.708Z,100509.28
2022-12-07T22:14:10.189Z,100506.75
2022-12-07T22:16:39.286Z,100493.34
2022-12-07T22:19:07.365Z,100498.88
2022-12-07T22:21:34.981Z,100494.91
2022-12-07T22:24:03.271Z,100489.91
2022-12-07T22:26:30.373Z,100484.75
2022-12-07T22:28:57.543Z,100485.66
2022-12-07T22:31:25.240Z,100493.41
2022-12-07T22:33:52.921Z,100487.22
2022-12-07T22:36:19.979Z,100486.31
2022-12-07T22:38:47.470Z,100490.34
2022-12-07T22:41:32.771Z,100496.06
2022-12-07T22:44:00.783Z,100491.09
2022-12-07T22:46:28.287Z,100491.91
2022-12-07T22:48:55.361Z,100500.63
2022-12-07T22:51:25.101Z,100492.31
2022-12-07T22:53:52.946Z,100489.97
2022-12-07T22:56:20.500Z,100487.78
2022-12-07T22:58:48.308Z,100484.28
2022-12-07T23:01:16.691Z,100487.50
2022-12-07T23:03:44.165Z,100497.50
2022-12-07T23:06:20.113Z,100491.75
2022-12-07T23:08:47.300Z,100483.28
2022-12-07T23:11:38.312Z,100487.56
2022-12-07T23:14:10.987Z,100488.22
2022-12-07T23:16:38.412Z,100485.50
2022-12-07T23:19:05.534Z,100490.47
2022-12-07T23:21:32.985Z,100486.19
2022-12-07T23:24:00.448Z,100487.03
2022-12-07T23:26:27.624Z,100485.25
2022-12-07T23:28:54.827Z,100487.06
2022-12-07T23:31:22.323Z,100488.78
2022-12-07T23:33:49.602Z,100488.88
2022-12-07T23:36:18.925Z,100486.22
2022-12-07T23:38:49.860Z,100488.91
2022-12-07T23:41:19.666Z,100490.63
2022-12-07T23:43:47.438Z,100480.72
2022-12-07T23:46:19.708Z,100485.97
2022-12-07T23:48:48.481Z,100480.81
2022-12-07T23:51:19.161Z,100478.38
2022-12-07T23:53:49.443Z,100486.88
2022-12-07T23:56:21.783Z,100487.78
2022-12-07T23:58:49.981Z,100485.28
